createdAt,value
2023-03-06T00:01:48.859Z,100791.84
2023-03-06T00:04:34.928Z,100785.06
2023-03-06T00:07:21.404Z,100786.06
2023-03-06T00:10:14.183Z,100781.28
2023-03-06T00:13:03.258Z,100782.72
2023-03-06T00:15:50.333Z,100777.91
2023-03-06T00:18:36.702Z,100782.13
2023-03-06T00:21:23.267Z,100771.00
2023-03-06T00:24:09.818Z,100770.75
2023-03-06T00:26:57.208Z,100773.78
2023-03-06T00:29:44.749Z,100771.25
2023-03-06T00:32:31.776Z,100772.38
2023-03-06T00:35:18.399Z,100762.81
2023-03-06T00:38:04.481Z,100760.16
2023-03-06T00:40:52.607Z,100757.59
2023-03-06T00:43:40.507Z,100759.53
2023-03-06T00:46:27.742Z,100748.88
2023-03-06T00:49:15.639Z,100744.06
2023-03-06T00:52:02.030Z,100730.84
2023-03-06T00:54:48.425Z,100727.00
2023-03-06T00:57:35.194Z,100724.34
2023-03-06T01:00:23.874Z,100717.09
2023-03-06T01:03:10.169Z,100709.25
2023-03-06T01:05:56.734Z,100706.44
2023-03-06T01:08:42.932Z,100707.19
2023-03-06T01:11:29.229Z,100702.28
2023-03-06T01:14:15.623Z,100695.56
2023-03-06T01:17:03.557Z,100691.59
2023-03-06T01:19:50.230Z,100693.84
2023-03-06T01:22:36.554Z,100688.41
2023-03-06T01:25:24.322Z,100692.81
2023-03-06T01:28:10.745Z,100698.00
2023-03-06T01:30:57.625Z,100693.56
2023-03-06T01:33:45.398Z,100706.25
2023-03-06T01:36:32.762Z,100697.28
2023-03-06T01:39:18.852Z,100704.81
2023-03-06T01:42:06.029Z,100706.16
2023-03-06T01:45:03.536Z,100717.47
2023-03-06T01:47:49.729Z,100709.97
2023-03-06T01:50:37.858Z,100715.69
2023-03-06T01:53:24.088Z,100718.47
2023-03-06T01:56:12.717Z,100719.72
2023-03-06T01:59:00.572Z,100718.75
2023-03-06T02:01:48.186Z,100714.50
2023-03-06T02:04:35.406Z,100717.25
2023-03-06T02:07:23.453Z,100720.16
2023-03-06T02:10:10.575Z,100718.47
2023-03-06T02:12:57.241Z,100716.22
2023-03-06T02:15:45.222Z,100719.13
2023-03-06T02:18:34.020Z,100720.94
2023-03-06T02:21:25.247Z,100720.94
2023-03-06T02:24:32.339Z,100730.28
2023-03-06T02:27:21.553Z,100730.28
2023-03-06T02:30:10.214Z,100732.56
2023-03-06T02:32:57.198Z,100730.81
2023-03-06T02:35:50.655Z,100731.06
2023-03-06T02:38:43.412Z,100730.72
2023-03-06T02:41:30.678Z,100734.25
2023-03-06T02:44:21.674Z,100741.06
2023-03-06T02:47:08.422Z,100742.03
2023-03-06T02:49:55.098Z,100750.38
2023-03-06T02:52:41.329Z,100738.59
2023-03-06T02:55:27.724Z,100738.94
2023-03-06T02:58:15.228Z,100742.41
2023-03-06T03:01:03.014Z,100739.06
2023-03-06T03:03:50.085Z,100740.34
2023-03-06T03:06:36.578Z,100735.97
2023-03-06T03:09:23.281Z,100737.78
2023-03-06T03:12:10.770Z,100735.06
2023-03-06T03:14:58.029Z,100737.88
2023-03-06T03:17:45.834Z,100740.38
2023-03-06T03:20:32.253Z,100751.34
2023-03-06T03:23:18.524Z,100749.97
2023-03-06T03:26:09.198Z,100751.72
2023-03-06T03:28:57.882Z,100749.19
2023-03-06T03:31:44.700Z,100759.59
2023-03-06T03:34:33.132Z,100747.09
2023-03-06T03:37:19.901Z,100750.69
2023-03-06T03:40:07.963Z,100758.31
2023-03-06T03:42:54.653Z,100761.94
2023-03-06T03:45:41.124Z,100758.44
2023-03-06T03:48:27.744Z,100767.75
2023-03-06T03:51:16.864Z,100772.69
2023-03-06T03:54:08.213Z,100775.97
2023-03-06T03:56:59.669Z,100768.28
2023-03-06T03:59:51.145Z,100769.81
2023-03-06T04:02:46.074Z,100774.91
2023-03-06T04:05:41.955Z,100777.69
2023-03-06T04:08:31.013Z,100779.88
2023-03-06T04:11:18.057Z,100772.31
2023-03-06T04:14:04.847Z,100778.34
2023-03-06T04:16:51.415Z,100778.22
2023-03-06T04:19:38.097Z,100774.03
2023-03-06T04:22:24.484Z,100774.44
2023-03-06T04:25:12.697Z,100774.19
2023-03-06T04:28:00.006Z,100775.72
2023-03-06T04:30:47.758Z,100772.09
2023-03-06T04:33:34.451Z,100762.31
2023-03-06T04:36:27.868Z,100754.84
2023-03-06T04:39:17.752Z,100758.50
2023-03-06T04:42:06.033Z,100753.03
2023-03-06T04:44:52.182Z,100753.16
2023-03-06T04:47:38.744Z,100752.91
2023-03-06T04:50:26.370Z,100755.44
2023-03-06T04:53:14.451Z,100751.19
2023-03-06T04:56:00.658Z,100749.38
2023-03-06T04:58:48.565Z,100750.97
2023-03-06T05:01:34.927Z,100760.66
2023-03-06T05:04:21.426Z,100763.66
2023-03-06T05:07:07.968Z,100757.03
2023-03-06T05:09:54.651Z,100757.34
2023-03-06T05:12:41.044Z,100764.22
2023-03-06T05:15:28.818Z,100771.09
2023-03-06T05:18:15.343Z,100767.59
2023-03-06T05:21:02.258Z,100771.22
2023-03-06T05:23:48.371Z,100771.22
2023-03-06T05:26:34.911Z,100775.72
2023-03-06T05:29:21.501Z,100784.72
2023-03-06T05:32:09.789Z,100780.25
2023-03-06T05:34:56.694Z,100780.25
2023-03-06T05:37:43.004Z,100780.69
2023-03-06T05:40:29.540Z,100785.50
2023-03-06T05:43:16.109Z,100778.19
2023-03-06T05:46:03.971Z,100784.38
2023-03-06T05:48:53.077Z,100787.19
2023-03-06T05:51:39.525Z,100785.91
2023-03-06T05:54:26.688Z,100794.75
2023-03-06T05:57:13.333Z,100793.66
2023-03-06T05:59:59.700Z,100790.56
2023-03-06T06:02:46.910Z,100792.53
2023-03-06T06:05:34.654Z,100795.72
2023-03-06T06:08:21.618Z,100803.72
2023-03-06T06:11:08.598Z,100791.56
2023-03-06T06:13:55.126Z,100806.63
2023-03-06T06:16:41.818Z,100814.66
2023-03-06T06:19:29.881Z,100815.63
2023-03-06T06:22:17.827Z,100833.88
2023-03-06T06:25:04.505Z,100831.03
2023-03-06T06:27:50.590Z,100845.22
2023-03-06T06:30:37.246Z,100847.06
2023-03-06T06:33:24.347Z,100857.75
2023-03-06T06:36:18.609Z,100862.66
2023-03-06T06:39:07.714Z,100861.97
2023-03-06T06:42:09.576Z,100873.94
2023-03-06T06:45:00.367Z,100864.25
2023-03-06T06:47:50.120Z,100873.56
2023-03-06T06:50:36.594Z,100880.19
2023-03-06T06:53:22.835Z,100892.59
2023-03-06T06:56:10.534Z,100908.34
2023-03-06T06:59:15.308Z,100924.38
2023-03-06T07:02:02.303Z,100932.19
2023-03-06T07:05:02.344Z,100921.25
2023-03-06T07:07:51.281Z,100934.00
2023-03-06T07:10:40.078Z,100949.38
2023-03-06T07:13:27.681Z,100963.19
2023-03-06T07:16:13.931Z,100970.13
2023-03-06T07:19:00.440Z,100970.44
2023-03-06T07:21:47.076Z,100981.59
2023-03-06T07:24:33.665Z,100987.53
2023-03-06T07:27:20.227Z,100981.72
2023-03-06T07:30:09.550Z,100988.38
2023-03-06T07:32:56.224Z,100992.31
2023-03-06T07:35:42.842Z,100985.19
2023-03-06T07:38:28.970Z,100993.63
2023-03-06T07:41:17.169Z,100985.31
2023-03-06T07:44:03.837Z,100984.38
2023-03-06T07:46:51.733Z,100972.88
2023-03-06T07:49:38.010Z,100973.88
2023-03-06T07:52:24.918Z,100973.75
2023-03-06T07:55:12.683Z,100969.09
2023-03-06T07:57:58.762Z,100964.63
2023-03-06T08:00:45.096Z,100958.53
2023-03-06T08:03:32.877Z,100957.13
2023-03-06T08:06:21.951Z,100936.56
2023-03-06T08:09:08.911Z,100928.66
2023-03-06T08:11:55.338Z,100907.97
2023-03-06T08:14:41.694Z,100900.19
2023-03-06T08:17:28.056Z,100872.28
2023-03-06T08:20:16.042Z,100852.81
2023-03-06T08:23:02.361Z,100830.06
2023-03-06T08:25:56.833Z,100788.59
2023-03-06T08:28:43.573Z,100741.59
2023-03-06T08:31:32.766Z,100696.06
2023-03-06T08:34:22.289Z,100651.34
2023-03-06T08:37:09.852Z,100616.69
2023-03-06T08:39:56.527Z,100585.00
2023-03-06T08:42:42.975Z,100554.47
2023-03-06T08:45:29.573Z,100526.00
2023-03-06T08:48:15.681Z,100508.81
2023-03-06T08:51:02.047Z,100481.00
2023-03-06T08:53:50.258Z,100469.91
2023-03-06T08:56:36.446Z,100463.63
2023-03-06T08:59:24.689Z,100442.19
2023-03-06T09:02:15.109Z,100438.06
2023-03-06T09:05:02.024Z,100426.91
2023-03-06T09:07:48.236Z,100424.44
2023-03-06T09:10:35.907Z,100411.81
2023-03-06T09:13:22.645Z,100407.00
2023-03-06T09:16:10.597Z,100404.34
2023-03-06T09:18:58.094Z,100401.69
2023-03-06T09:21:44.447Z,100399.16
2023-03-06T09:24:31.323Z,100397.13
2023-03-06T09:27:19.513Z,100391.59
2023-03-06T09:30:06.855Z,100397.66
2023-03-06T09:32:53.357Z,100405.41
2023-03-06T09:35:43.592Z,100400.47
2023-03-06T09:38:29.778Z,100413.03
2023-03-06T09:41:26.301Z,100409.03
2023-03-06T09:44:18.017Z,100413.06
2023-03-06T09:47:36.921Z,100414.03
2023-03-06T09:50:31.521Z,100416.91
2023-03-06T09:53:39.171Z,100417.91
2023-03-06T09:56:31.013Z,100414.91
2023-03-06T09:59:22.510Z,100416.78
2023-03-06T10:02:15.926Z,100420.47
2023-03-06T10:05:06.706Z,100416.56
2023-03-06T10:07:57.734Z,100423.66
2023-03-06T10:10:50.109Z,100417.72
2023-03-06T10:13:43.353Z,100419.34
2023-03-06T10:16:33.209Z,100416.47
2023-03-06T10:19:21.019Z,100420.91
2023-03-06T10:22:20.650Z,100433.41
2023-03-06T10:25:16.841Z,100424.44
2023-03-06T10:28:14.036Z,100420.25
2023-03-06T10:31:06.971Z,100425.59
2023-03-06T10:33:57.235Z,100425.72
2023-03-06T10:36:43.680Z,100417.00
2023-03-06T10:39:30.349Z,100418.28
2023-03-06T10:42:16.424Z,100422.34
2023-03-06T10:45:11.446Z,100422.31
2023-03-06T10:48:12.147Z,100423.31
2023-03-06T10:51:18.827Z,100427.63
2023-03-06T10:54:20.476Z,100430.47
2023-03-06T10:57:22.146Z,100414.13
2023-03-06T11:00:29.437Z,100419.78
2023-03-06T11:03:21.261Z,100422.50
2023-03-06T11:06:13.264Z,100415.44
2023-03-06T11:09:16.551Z,100409.06
2023-03-06T11:12:22.782Z,100423.91
2023-03-06T11:15:20.897Z,100402.75
2023-03-06T11:18:30.970Z,100414.91
2023-03-06T11:21:31.728Z,100419.78
2023-03-06T11:24:21.294Z,100407.75
2023-03-06T11:27:22.213Z,100410.31
2023-03-06T11:30:19.169Z,100394.94
2023-03-06T11:33:15.669Z,100394.28
2023-03-06T11:36:12.149Z,100392.03
2023-03-06T11:38:59.661Z,100382.56
2023-03-06T11:41:54.967Z,100387.00
2023-03-06T11:44:57.181Z,100378.78
2023-03-06T11:47:47.139Z,100376.97
2023-03-06T11:50:37.085Z,100379.19
2023-03-06T11:53:28.206Z,100377.59
2023-03-06T11:56:34.251Z,100374.59
2023-03-06T12:00:03.090Z,100362.53
2023-03-06T12:03:28.065Z,100365.97
2023-03-06T12:06:22.936Z,100361.69
2023-03-06T12:09:29.588Z,100351.84
2023-03-06T12:12:31.623Z,100344.56
2023-03-06T12:15:26.675Z,100337.41
2023-03-06T12:18:27.739Z,100343.06
2023-03-06T12:21:22.602Z,100344.50
2023-03-06T12:24:23.206Z,100340.47
2023-03-06T12:27:16.458Z,100337.69
2023-03-06T12:30:26.156Z,100337.47
2023-03-06T12:33:23.570Z,100327.75
2023-03-06T12:36:25.123Z,100325.34
2023-03-06T12:39:17.876Z,100327.66
2023-03-06T12:42:23.485Z,100308.84
2023-03-06T12:45:31.759Z,100314.41
2023-03-06T12:48:22.897Z,100307.81
2023-03-06T12:51:13.535Z,100314.56
2023-03-06T12:54:03.062Z,100300.19
2023-03-06T12:56:50.234Z,100298.31
2023-03-06T12:59:40.054Z,100305.03
2023-03-06T13:02:58.184Z,100295.47
2023-03-06T13:06:14.264Z,100287.53
2023-03-06T13:09:12.658Z,100274.97
2023-03-06T13:12:14.751Z,100279.50
2023-03-06T13:15:07.824Z,100275.22
2023-03-06T13:17:53.918Z,100280.81
2023-03-06T13:20:45.040Z,100266.16
2023-03-06T13:23:53.223Z,100259.41
2023-03-06T13:26:55.285Z,100263.41
2023-03-06T13:30:06.651Z,100261.78
2023-03-06T13:32:53.742Z,100254.44
2023-03-06T13:35:57.101Z,100249.75
2023-03-06T13:39:09.647Z,100238.59
2023-03-06T13:41:59.117Z,100226.34
2023-03-06T13:44:45.898Z,100235.31
2023-03-06T13:47:59.051Z,100238.09
2023-03-06T13:50:44.456Z,100225.91
2023-03-06T13:54:00.219Z,100222.09
2023-03-06T13:57:19.583Z,100219.81
2023-03-06T14:00:34.736Z,100220.81
2023-03-06T14:03:49.417Z,100220.19
2023-03-06T14:06:56.749Z,100222.63
2023-03-06T14:09:46.506Z,100227.38
2023-03-06T14:12:35.561Z,100236.34
2023-03-06T14:15:25.582Z,100227.47
2023-03-06T14:18:19.246Z,100222.63
2023-03-06T14:21:11.723Z,100210.03
2023-03-06T14:24:00.816Z,100213.66
2023-03-06T14:26:51.758Z,100218.94
2023-03-06T14:29:38.168Z,100214.44
2023-03-06T14:32:24.966Z,100213.91
2023-03-06T14:35:24.386Z,100227.59
2023-03-06T14:38:16.226Z,100208.34
2023-03-06T14:41:03.202Z,100200.75
2023-03-06T14:43:50.704Z,100199.66
2023-03-06T14:46:37.312Z,100200.41
2023-03-06T14:49:26.076Z,100201.59
2023-03-06T14:52:20.362Z,100200.47
2023-03-06T14:55:11.951Z,100197.59
2023-03-06T14:58:03.955Z,100221.06
2023-03-06T15:00:55.126Z,100235.31
2023-03-06T15:03:45.341Z,100224.88
2023-03-06T15:06:37.754Z,100221.47
2023-03-06T15:09:27.555Z,100205.78
2023-03-06T15:12:38.611Z,100201.06
2023-03-06T15:15:29.020Z,100195.28
2023-03-06T15:18:30.953Z,100177.63
2023-03-06T15:21:19.882Z,100188.00
2023-03-06T15:24:32.470Z,100179.53
2023-03-06T15:27:21.729Z,100181.66
2023-03-06T15:30:32.383Z,100174.81
2023-03-06T15:33:25.791Z,100183.66
2023-03-06T15:36:27.478Z,100162.06
2023-03-06T15:39:28.676Z,100159.13
2023-03-06T15:42:19.268Z,100138.50
2023-03-06T15:45:16.722Z,100135.16
2023-03-06T15:48:03.338Z,100127.28
2023-03-06T15:50:49.519Z,100130.66
2023-03-06T15:53:37.430Z,100129.66
2023-03-06T15:56:29.979Z,100137.69
2023-03-06T15:59:24.077Z,100134.50
2023-03-06T16:02:17.397Z,100131.81
2023-03-06T16:05:05.662Z,100132.97
2023-03-06T16:07:53.457Z,100131.81
2023-03-06T16:10:43.377Z,100135.81
2023-03-06T16:13:29.955Z,100134.78
2023-03-06T16:16:19.351Z,100128.91
2023-03-06T16:19:20.352Z,100123.91
2023-03-06T16:22:12.091Z,100119.69
2023-03-06T16:24:58.437Z,100115.16
2023-03-06T16:27:55.345Z,100112.97
2023-03-06T16:30:42.776Z,100110.66
2023-03-06T16:33:29.064Z,100115.84
2023-03-06T16:36:19.688Z,100118.16
2023-03-06T16:39:07.042Z,100107.94
2023-03-06T16:41:54.011Z,100104.25
2023-03-06T16:44:41.714Z,100105.06
2023-03-06T16:47:28.009Z,100102.06
2023-03-06T16:50:23.448Z,100089.53
2023-03-06T16:53:10.550Z,100097.72
2023-03-06T16:55:56.867Z,100091.34
2023-03-06T16:58:44.064Z,100092.72
2023-03-06T17:01:32.048Z,100091.34
2023-03-06T17:04:18.456Z,100081.50
2023-03-06T17:07:05.031Z,100074.28
2023-03-06T17:09:51.254Z,100076.13
2023-03-06T17:12:38.753Z,100078.28
2023-03-06T17:15:25.237Z,100059.22
2023-03-06T17:18:13.142Z,100057.88
2023-03-06T17:21:00.121Z,100050.84
2023-03-06T17:23:46.355Z,100036.25
2023-03-06T17:26:33.351Z,100028.53
2023-03-06T17:29:19.466Z,100020.88
2023-03-06T17:32:05.957Z,100013.97
2023-03-06T17:34:53.845Z,100022.69
2023-03-06T17:37:40.437Z,100019.50
2023-03-06T17:40:27.202Z,100016.97
2023-03-06T17:43:13.475Z,100011.81
2023-03-06T17:46:03.937Z,100010.78
2023-03-06T17:48:50.314Z,100008.28
2023-03-06T17:51:39.266Z,100012.28
2023-03-06T17:54:26.181Z,100008.44
2023-03-06T17:57:12.518Z,100012.78
2023-03-06T17:59:59.140Z,100008.91
2023-03-06T18:02:46.060Z,100013.94
2023-03-06T18:05:32.638Z,100011.09
2023-03-06T18:08:20.336Z,100014.91
2023-03-06T18:11:09.636Z,100025.63
2023-03-06T18:13:56.519Z,100029.81
2023-03-06T18:16:42.942Z,100028.78
2023-03-06T18:19:29.317Z,100030.59
2023-03-06T18:22:15.854Z,100016.38
2023-03-06T18:25:04.091Z,100016.84
2023-03-06T18:27:50.623Z,100022.56
2023-03-06T18:30:38.004Z,100006.16
2023-03-06T18:33:24.262Z,100008.97
2023-03-06T18:36:10.822Z,100000.59
2023-03-06T18:38:57.273Z,100000.44
2023-03-06T18:41:45.662Z,99992.41
2023-03-06T18:44:31.675Z,99992.38
2023-03-06T18:47:18.274Z,99988.84
2023-03-06T18:50:05.006Z,99988.34
2023-03-06T18:52:51.391Z,99978.31
2023-03-06T18:55:38.443Z,99977.47
2023-03-06T18:58:26.344Z,99969.63
2023-03-06T19:01:13.085Z,99964.56
2023-03-06T19:04:01.942Z,99966.44
2023-03-06T19:06:48.268Z,99963.75
2023-03-06T19:09:35.006Z,99957.03
2023-03-06T19:12:21.678Z,99954.03
2023-03-06T19:15:10.496Z,99957.88
2023-03-06T19:17:57.083Z,99955.06
2023-03-06T19:20:43.920Z,99952.88
2023-03-06T19:23:30.603Z,99946.50
2023-03-06T19:26:23.370Z,99949.19
2023-03-06T19:29:09.855Z,99953.56
2023-03-06T19:31:58.785Z,99948.03
2023-03-06T19:34:45.254Z,99944.00
2023-03-06T19:37:31.611Z,99948.53
2023-03-06T19:40:18.290Z,99947.69
2023-03-06T19:43:04.877Z,99951.34
2023-03-06T19:45:51.808Z,99943.31
2023-03-06T19:48:39.842Z,99948.22
2023-03-06T19:51:26.741Z,99953.72
2023-03-06T19:54:13.949Z,99949.69
2023-03-06T19:57:00.612Z,99952.56
2023-03-06T19:59:50.534Z,99958.75
2023-03-06T20:02:37.378Z,99954.09
2023-03-06T20:05:25.290Z,99958.13
2023-03-06T20:08:11.786Z,99950.91
2023-03-06T20:10:58.289Z,99945.06
2023-03-06T20:13:47.529Z,99959.63
2023-03-06T20:16:34.832Z,99965.47
2023-03-06T20:19:21.894Z,99964.53
2023-03-06T20:22:09.290Z,99976.25
2023-03-06T20:24:55.755Z,99979.94
2023-03-06T20:27:42.268Z,99969.72
2023-03-06T20:30:37.514Z,99973.75
2023-03-06T20:33:26.438Z,99972.75
2023-03-06T20:36:14.304Z,99969.09
2023-03-06T20:39:04.651Z,99987.31
2023-03-06T20:41:52.145Z,99999.72
2023-03-06T20:44:38.537Z,100003.06
2023-03-06T20:47:24.847Z,100010.28
2023-03-06T20:50:12.226Z,100028.00
2023-03-06T20:52:59.262Z,100044.25
2023-03-06T20:55:49.691Z,100057.47
2023-03-06T20:58:36.365Z,100065.03
2023-03-06T21:01:24.350Z,100075.91
2023-03-06T21:04:13.576Z,100080.94
2023-03-06T21:06:59.783Z,100097.69
2023-03-06T21:09:47.621Z,100107.94
2023-03-06T21:12:35.037Z,100127.38
2023-03-06T21:15:21.649Z,100138.75
2023-03-06T21:18:08.163Z,100138.28
2023-03-06T21:20:54.612Z,100137.91
2023-03-06T21:23:41.625Z,100132.75
2023-03-06T21:26:30.251Z,100143.16
2023-03-06T21:29:18.085Z,100146.03
2023-03-06T21:32:04.758Z,100157.56
2023-03-06T21:34:51.169Z,100175.00
2023-03-06T21:37:37.445Z,100154.25
2023-03-06T21:40:23.902Z,100182.25
2023-03-06T21:43:10.394Z,100207.88
2023-03-06T21:45:59.260Z,100208.91
2023-03-06T21:48:45.711Z,100215.91
2023-03-06T21:51:31.848Z,100218.44
2023-03-06T21:54:18.242Z,100229.84
2023-03-06T21:57:04.661Z,100240.91
2023-03-06T21:59:50.962Z,100248.09
2023-03-06T22:02:39.205Z,100257.16
2023-03-06T22:05:25.578Z,100280.19
2023-03-06T22:08:11.926Z,100280.03
2023-03-06T22:10:58.114Z,100278.41
2023-03-06T22:13:45.233Z,100268.16
2023-03-06T22:16:31.713Z,100257.75
2023-03-06T22:19:19.640Z,100253.19
2023-03-06T22:22:06.145Z,100249.81
2023-03-06T22:24:52.514Z,100246.63
2023-03-06T22:27:39.199Z,100246.16
2023-03-06T22:30:25.409Z,100250.34
2023-03-06T22:33:11.773Z,100266.25
2023-03-06T22:36:05.993Z,100269.09
2023-03-06T22:38:55.561Z,100275.84
2023-03-06T22:41:42.137Z,100276.19
2023-03-06T22:44:28.317Z,100271.81
2023-03-06T22:47:14.763Z,100263.44
2023-03-06T22:50:00.877Z,100261.91
2023-03-06T22:52:48.631Z,100253.00
2023-03-06T22:55:35.846Z,100255.06
2023-03-06T22:58:21.979Z,100270.81
2023-03-06T23:01:11.350Z,100270.31
2023-03-06T23:03:59.964Z,100264.97
2023-03-06T23:06:46.986Z,100268.97
2023-03-06T23:09:34.990Z,100272.66
2023-03-06T23:12:41.576Z,100273.00
2023-03-06T23:15:47.045Z,100278.19
2023-03-06T23:18:52.749Z,100277.31
2023-03-06T23:21:58.193Z,100271.59
2023-03-06T23:25:05.920Z,100271.44
2023-03-06T23:27:52.450Z,100280.88
2023-03-06T23:30:39.151Z,100276.84
2023-03-06T23:33:25.602Z,100275.31
2023-03-06T23:36:13.345Z,100274.28
2023-03-06T23:38:59.806Z,100279.97
2023-03-06T23:41:47.875Z,100276.75
2023-03-06T23:44:35.615Z,100275.56
2023-03-06T23:47:21.823Z,100281.44
2023-03-06T23:50:09.095Z,100283.63
2023-03-06T23:52:55.683Z,100281.81
2023-03-06T23:55:42.571Z,100272.44
2023-03-06T23:58:31.046Z,100273.59
